This is the latest recevied weather packets stored in our database for station/object DH1NAI-6. If no packets are shown the sender has not sent any weather packets the latest 10 day(s).
| Time | Temp. | Humidity | Pressure | Rain* | Wind** | Luminosity | Snow |
|---|---|---|---|---|---|---|---|
| 1777868450 | 7.78° C | 94% | 1011.8 hPa | 0 mm | - | 6 W/m² | - |
| 1777867842 | 6.67° C | 96% | 1011.7 hPa | 0 mm | - | 4 W/m² | - |
| 1777867234 | 6.11° C | 97% | 1011.8 hPa | 0 mm | - | 2 W/m² | - |
| 1777866626 | 5.56° C | 97% | 1011.8 hPa | 0 mm | - | 1 W/m² | - |
| 1777866018 | 5.56° C | 96% | 1011.8 hPa | 0 mm | - | 0 W/m² | - |
| 1777865410 | 5.56° C | 96% | 1011.8 hPa | 0 mm | - | 0 W/m² | - |
| 1777864802 | 6.11° C | 96% | 1011.7 hPa | 0 mm | - | 0 W/m² | - |
| 1777864194 | 6.11° C | 96% | 1011.7 hPa | 0 mm | - | 0 W/m² | - |
| 1777863586 | 5.56° C | 95% | 1011.8 hPa | 0 mm | - | 0 W/m² | - |
| 1777862978 | 6.11° C | 94% | 1011.9 hPa | 0 mm | - | 0 W/m² | - |
| 1777862370 | 6.67° C | 93% | 1011.9 hPa | 0 mm | - | 0 W/m² | - |
| 1777861762 | 6.67° C | 94% | 1011.6 hPa | 0 mm | - | 0 W/m² | - |
| 1777861154 | 7.22° C | 91% | 1011.9 hPa | 0 mm | - | 0 W/m² | - |
| 1777860546 | 8.33° C | 90% | 1011.9 hPa | 0 mm | - | 0 W/m² | - |
| 1777859938 | 8.89° C | 87% | 1012.1 hPa | 0 mm | - | 0 W/m² | - |
| 1777859330 | 10.56° C | 83% | 1012.1 hPa | 0 mm | - | 0 W/m² | - |
| 1777858722 | 11.67° C | 78% | 1012 hPa | 0 mm | - | 0 W/m² | - |
| 1777858112 | 12.22° C | 76% | 1012.2 hPa | 0 mm | - | 0 W/m² | - |
| 1777857507 | 12.78° C | 75% | 1012 hPa | 0 mm | - | 0 W/m² | - |
| 1777856291 | 13.33° C | 73% | 1012 hPa | 0 mm | - | 0 W/m² | - |
| 1777855682 | 13.33° C | 72% | 1012 hPa | 0 mm | - | 0 W/m² | - |
| 1777855058 | 12.78° C | 74% | 1012.1 hPa | 0 mm | - | 0 W/m² | - |
| 1777854450 | 12.78° C | 77% | 1012.1 hPa | 0 mm | - | 0 W/m² | - |
| 1777853842 | 12.22° C | 79% | 1011.9 hPa | 0 mm | - | 0 W/m² | - |
| 1777853218 | 11.11° C | 85% | 1012 hPa | 0 mm | - | 0 W/m² | - |
* Rain latest hour (hover to see other rain measurements)
** Current wind speed in m/s (hover to see current wind gust speed)